sensor_id;sensor_type;location;lat;lon;timestamp;P1;durP1;ratioP1;P2;durP2;ratioP2
68375;SDS011;55318;52.068;5.188;2024-02-28T00:00:07;33.1;;;18.11;;
68375;SDS011;55318;52.068;5.188;2024-02-28T00:01:48;33.6;;;17.91;;
68375;SDS011;55318;52.068;5.188;2024-02-28T00:05:00;32.21;;;17.2;;
68375;SDS011;55318;52.068;5.188;2024-02-28T00:06:36;29.3;;;16.9;;
68375;SDS011;55318;52.068;5.188;2024-02-28T00:08:13;35.0;;;17.61;;
68375;SDS011;55318;52.068;5.188;2024-02-28T00:11:25;33.4;;;17.3;;
68375;SDS011;55318;52.068;5.188;2024-02-28T00:13:01;41.4;;;19.91;;
68375;SDS011;55318;52.068;5.188;2024-02-28T00:14:37;30.3;;;17.2;;
68375;SDS011;55318;52.068;5.188;2024-02-28T00:17:54;33.6;;;17.61;;
68375;SDS011;55318;52.068;5.188;2024-02-28T00:19:30;33.8;;;17.8;;
68375;SDS011;55318;52.068;5.188;2024-02-28T00:21:07;38.21;;;20.3;;
68375;SDS011;55318;52.068;5.188;2024-02-28T00:22:43;33.71;;;19.5;;
68375;SDS011;55318;52.068;5.188;2024-02-28T00:25:55;36.5;;;19.8;;
68375;SDS011;55318;52.068;5.188;2024-02-28T00:27:31;35.0;;;19.8;;
68375;SDS011;55318;52.068;5.188;2024-02-28T00:29:08;32.1;;;17.91;;
68375;SDS011;55318;52.068;5.188;2024-02-28T00:32:20;33.0;;;17.5;;
68375;SDS011;55318;52.068;5.188;2024-02-28T00:33:56;37.21;;;19.91;;
68375;SDS011;55318;52.068;5.188;2024-02-28T00:35:33;31.8;;;16.4;;
68375;SDS011;55318;52.068;5.188;2024-02-28T00:38:45;32.6;;;17.61;;
68375;SDS011;55318;52.068;5.188;2024-02-28T00:40:21;36.5;;;19.7;;
68375;SDS011;55318;52.068;5.188;2024-02-28T00:41:57;36.1;;;18.3;;
68375;SDS011;55318;52.068;5.188;2024-02-28T00:43:33;40.1;;;18.41;;
68375;SDS011;55318;52.068;5.188;2024-02-28T00:46:45;36.6;;;18.8;;
68375;SDS011;55318;52.068;5.188;2024-02-28T00:48:21;35.9;;;18.91;;
68375;SDS011;55318;52.068;5.188;2024-02-28T00:49:58;36.6;;;19.41;;
68375;SDS011;55318;52.068;5.188;2024-02-28T00:53:10;34.71;;;18.41;;
68375;SDS011;55318;52.068;5.188;2024-02-28T00:54:46;33.8;;;17.8;;
68375;SDS011;55318;52.068;5.188;2024-02-28T00:56:22;37.71;;;18.3;;
68375;SDS011;55318;52.068;5.188;2024-02-28T00:59:34;35.31;;;19.8;;
68375;SDS011;55318;52.068;5.188;2024-02-28T01:01:10;40.71;;;19.0;;
68375;SDS011;55318;52.068;5.188;2024-02-28T01:02:47;40.21;;;20.0;;
68375;SDS011;55318;52.068;5.188;2024-02-28T01:06:00;41.9;;;20.7;;
68375;SDS011;55318;52.068;5.188;2024-02-28T01:07:36;38.5;;;20.2;;
68375;SDS011;55318;52.068;5.188;2024-02-28T01:09:12;42.3;;;20.6;;
68375;SDS011;55318;52.068;5.188;2024-02-28T01:10:48;38.4;;;19.3;;
68375;SDS011;55318;52.068;5.188;2024-02-28T01:14:00;38.4;;;19.3;;
68375;SDS011;55318;52.068;5.188;2024-02-28T01:15:37;36.21;;;20.2;;
68375;SDS011;55318;52.068;5.188;2024-02-28T01:17:15;41.4;;;20.11;;
68375;SDS011;55318;52.068;5.188;2024-02-28T01:20:27;41.9;;;20.41;;
68375;SDS011;55318;52.068;5.188;2024-02-28T01:22:04;37.5;;;19.2;;
68375;SDS011;55318;52.068;5.188;2024-02-28T01:23:40;37.4;;;19.5;;
68375;SDS011;55318;52.068;5.188;2024-02-28T01:26:52;38.31;;;19.5;;
68375;SDS011;55318;52.068;5.188;2024-02-28T01:28:28;39.4;;;20.0;;
68375;SDS011;55318;52.068;5.188;2024-02-28T01:30:05;35.81;;;19.0;;
68375;SDS011;55318;52.068;5.188;2024-02-28T01:31:42;37.6;;;19.7;;
68375;SDS011;55318;52.068;5.188;2024-02-28T01:34:58;36.21;;;19.5;;
68375;SDS011;55318;52.068;5.188;2024-02-28T01:36:34;37.4;;;19.11;;
68375;SDS011;55318;52.068;5.188;2024-02-28T01:38:10;35.1;;;18.61;;
68375;SDS011;55318;52.068;5.188;2024-02-28T01:41:22;40.6;;;20.5;;
68375;SDS011;55318;52.068;5.188;2024-02-28T01:43:02;34.0;;;18.41;;
68375;SDS011;55318;52.068;5.188;2024-02-28T01:44:40;39.6;;;20.7;;
68375;SDS011;55318;52.068;5.188;2024-02-28T01:46:21;41.5;;;19.3;;
68375;SDS011;55318;52.068;5.188;2024-02-28T01:49:37;38.9;;;18.61;;
68375;SDS011;55318;52.068;5.188;2024-02-28T01:51:15;34.71;;;19.3;;
68375;SDS011;55318;52.068;5.188;2024-02-28T01:52:52;32.0;;;17.0;;
68375;SDS011;55318;52.068;5.188;2024-02-28T01:56:05;34.1;;;18.0;;
68375;SDS011;55318;52.068;5.188;2024-02-28T01:57:42;35.1;;;18.61;;
68375;SDS011;55318;52.068;5.188;2024-02-28T01:59:18;36.6;;;18.7;;
68375;SDS011;55318;52.068;5.188;2024-02-28T02:02:31;33.0;;;18.11;;
68375;SDS011;55318;52.068;5.188;2024-02-28T02:04:08;34.0;;;17.41;;
68375;SDS011;55318;52.068;5.188;2024-02-28T02:05:44;30.9;;;17.11;;
68375;SDS011;55318;52.068;5.188;2024-02-28T02:07:20;37.31;;;18.3;;
68375;SDS011;55318;52.068;5.188;2024-02-28T02:10:32;38.0;;;18.0;;
68375;SDS011;55318;52.068;5.188;2024-02-28T02:12:08;36.71;;;19.0;;
68375;SDS011;55318;52.068;5.188;2024-02-28T02:13:47;35.6;;;16.8;;
68375;SDS011;55318;52.068;5.188;2024-02-28T02:16:59;36.21;;;18.0;;
68375;SDS011;55318;52.068;5.188;2024-02-28T02:18:36;33.3;;;17.91;;
68375;SDS011;55318;52.068;5.188;2024-02-28T02:20:15;34.31;;;17.3;;
68375;SDS011;55318;52.068;5.188;2024-02-28T02:21:57;33.21;;;17.3;;
68375;SDS011;55318;52.068;5.188;2024-02-28T02:25:10;39.9;;;20.5;;
68375;SDS011;55318;52.068;5.188;2024-02-28T02:26:46;35.81;;;17.5;;
68375;SDS011;55318;52.068;5.188;2024-02-28T02:28:22;34.4;;;18.11;;
68375;SDS011;55318;52.068;5.188;2024-02-28T02:31:34;34.6;;;17.7;;
68375;SDS011;55318;52.068;5.188;2024-02-28T02:33:11;32.8;;;16.9;;
68375;SDS011;55318;52.068;5.188;2024-02-28T02:34:47;36.21;;;18.5;;
68375;SDS011;55318;52.068;5.188;2024-02-28T02:37:59;35.81;;;17.5;;
68375;SDS011;55318;52.068;5.188;2024-02-28T02:39:35;36.71;;;17.91;;
68375;SDS011;55318;52.068;5.188;2024-02-28T02:41:11;36.31;;;18.8;;
68375;SDS011;55318;52.068;5.188;2024-02-28T02:42:47;31.8;;;17.0;;
68375;SDS011;55318;52.068;5.188;2024-02-28T02:45:59;39.1;;;18.7;;
68375;SDS011;55318;52.068;5.188;2024-02-28T02:47:35;39.71;;;19.5;;
68375;SDS011;55318;52.068;5.188;2024-02-28T02:49:12;28.4;;;15.3;;
68375;SDS011;55318;52.068;5.188;2024-02-28T02:52:24;25.3;;;15.0;;
68375;SDS011;55318;52.068;5.188;2024-02-28T02:54:05;25.1;;;14.2;;
68375;SDS011;55318;52.068;5.188;2024-02-28T02:55:41;26.0;;;14.5;;
68375;SDS011;55318;52.068;5.188;2024-02-28T02:58:53;23.9;;;13.9;;
68375;SDS011;55318;52.068;5.188;2024-02-28T03:00:29;25.5;;;14.6;;
68375;SDS011;55318;52.068;5.188;2024-02-28T03:02:05;25.7;;;13.9;;
68375;SDS011;55318;52.068;5.188;2024-02-28T03:03:41;26.0;;;13.6;;
68375;SDS011;55318;52.068;5.188;2024-02-28T03:06:54;26.7;;;15.5;;
68375;SDS011;55318;52.068;5.188;2024-02-28T03:08:30;27.6;;;14.5;;
68375;SDS011;55318;52.068;5.188;2024-02-28T03:10:06;26.1;;;14.2;;
68375;SDS011;55318;52.068;5.188;2024-02-28T03:13:18;27.2;;;14.8;;
68375;SDS011;55318;52.068;5.188;2024-02-28T03:14:54;25.8;;;14.3;;
68375;SDS011;55318;52.068;5.188;2024-02-28T03:16:31;30.7;;;16.0;;
68375;SDS011;55318;52.068;5.188;2024-02-28T03:19:44;27.3;;;14.9;;
68375;SDS011;55318;52.068;5.188;2024-02-28T03:21:20;25.0;;;14.7;;
68375;SDS011;55318;52.068;5.188;2024-02-28T03:22:56;25.4;;;14.0;;
68375;SDS011;55318;52.068;5.188;2024-02-28T03:26:08;25.4;;;14.1;;
68375;SDS011;55318;52.068;5.188;2024-02-28T03:27:44;25.2;;;15.3;;
68375;SDS011;55318;52.068;5.188;2024-02-28T03:29:20;27.9;;;14.5;;
68375;SDS011;55318;52.068;5.188;2024-02-28T03:30:56;22.8;;;13.1;;
68375;SDS011;55318;52.068;5.188;2024-02-28T03:34:09;23.7;;;14.3;;
68375;SDS011;55318;52.068;5.188;2024-02-28T03:35:45;23.6;;;14.1;;
68375;SDS011;55318;52.068;5.188;2024-02-28T03:37:21;23.8;;;13.4;;
68375;SDS011;55318;52.068;5.188;2024-02-28T03:40:36;18.41;;;12.1;;
68375;SDS011;55318;52.068;5.188;2024-02-28T03:42:12;20.9;;;12.6;;
68375;SDS011;55318;52.068;5.188;2024-02-28T03:43:48;20.41;;;13.0;;
68375;SDS011;55318;52.068;5.188;2024-02-28T03:47:04;21.3;;;13.3;;
68375;SDS011;55318;52.068;5.188;2024-02-28T03:48:40;20.9;;;13.3;;
68375;SDS011;55318;52.068;5.188;2024-02-28T03:50:17;23.0;;;12.7;;
68375;SDS011;55318;52.068;5.188;2024-02-28T03:51:53;22.0;;;13.3;;
68375;SDS011;55318;52.068;5.188;2024-02-28T03:55:05;22.3;;;13.7;;
68375;SDS011;55318;52.068;5.188;2024-02-28T03:56:42;23.0;;;13.5;;
68375;SDS011;55318;52.068;5.188;2024-02-28T03:58:18;22.7;;;13.1;;
68375;SDS011;55318;52.068;5.188;2024-02-28T04:01:30;20.9;;;12.9;;
68375;SDS011;55318;52.068;5.188;2024-02-28T04:03:06;20.8;;;13.2;;
68375;SDS011;55318;52.068;5.188;2024-02-28T04:04:42;21.1;;;12.9;;
68375;SDS011;55318;52.068;5.188;2024-02-28T04:07:55;21.8;;;12.6;;
68375;SDS011;55318;52.068;5.188;2024-02-28T04:09:31;21.1;;;12.0;;
68375;SDS011;55318;52.068;5.188;2024-02-28T04:11:07;19.7;;;12.3;;
68375;SDS011;55318;52.068;5.188;2024-02-28T04:12:43;18.2;;;12.0;;
68375;SDS011;55318;52.068;5.188;2024-02-28T04:15:55;19.7;;;12.1;;
68375;SDS011;55318;52.068;5.188;2024-02-28T04:17:31;20.41;;;12.0;;
68375;SDS011;55318;52.068;5.188;2024-02-28T04:19:07;19.8;;;12.2;;
68375;SDS011;55318;52.068;5.188;2024-02-28T04:22:20;20.7;;;12.3;;
68375;SDS011;55318;52.068;5.188;2024-02-28T04:23:56;18.7;;;12.7;;
68375;SDS011;55318;52.068;5.188;2024-02-28T04:25:32;17.2;;;11.3;;
68375;SDS011;55318;52.068;5.188;2024-02-28T04:28:44;19.11;;;12.8;;
68375;SDS011;55318;52.068;5.188;2024-02-28T04:30:20;18.8;;;12.0;;
68375;SDS011;55318;52.068;5.188;2024-02-28T04:31:56;19.41;;;12.0;;
68375;SDS011;55318;52.068;5.188;2024-02-28T04:35:09;17.61;;;12.2;;
68375;SDS011;55318;52.068;5.188;2024-02-28T04:36:46;19.11;;;11.7;;
68375;SDS011;55318;52.068;5.188;2024-02-28T04:38:22;18.0;;;11.5;;
68375;SDS011;55318;52.068;5.188;2024-02-28T04:39:58;17.7;;;12.1;;
68375;SDS011;55318;52.068;5.188;2024-02-28T04:43:10;16.4;;;11.3;;
68375;SDS011;55318;52.068;5.188;2024-02-28T04:44:46;17.91;;;12.1;;
68375;SDS011;55318;52.068;5.188;2024-02-28T04:46:22;17.2;;;12.0;;
68375;SDS011;55318;52.068;5.188;2024-02-28T04:49:36;18.3;;;12.7;;
68375;SDS011;55318;52.068;5.188;2024-02-28T04:51:15;19.5;;;13.0;;
68375;SDS011;55318;52.068;5.188;2024-02-28T04:52:51;17.2;;;12.0;;
68375;SDS011;55318;52.068;5.188;2024-02-28T04:56:03;20.11;;;13.4;;
68375;SDS011;55318;52.068;5.188;2024-02-28T04:57:39;18.2;;;12.0;;
68375;SDS011;55318;52.068;5.188;2024-02-28T04:59:15;19.5;;;12.6;;
68375;SDS011;55318;52.068;5.188;2024-02-28T05:00:51;17.5;;;12.4;;
68375;SDS011;55318;52.068;5.188;2024-02-28T05:04:04;16.9;;;12.0;;
68375;SDS011;55318;52.068;5.188;2024-02-28T05:05:41;17.11;;;12.5;;
68375;SDS011;55318;52.068;5.188;2024-02-28T05:07:16;16.7;;;11.5;;
68375;SDS011;55318;52.068;5.188;2024-02-28T05:10:28;17.41;;;12.3;;
68375;SDS011;55318;52.068;5.188;2024-02-28T05:12:04;22.0;;;12.9;;
68375;SDS011;55318;52.068;5.188;2024-02-28T05:13:41;17.2;;;11.2;;
68375;SDS011;55318;52.068;5.188;2024-02-28T05:16:53;21.8;;;12.5;;
68375;SDS011;55318;52.068;5.188;2024-02-28T05:18:29;18.8;;;12.4;;
68375;SDS011;55318;52.068;5.188;2024-02-28T05:20:06;17.3;;;12.3;;
68375;SDS011;55318;52.068;5.188;2024-02-28T05:23:20;18.41;;;11.5;;
68375;SDS011;55318;52.068;5.188;2024-02-28T05:24:56;20.9;;;11.6;;
68375;SDS011;55318;52.068;5.188;2024-02-28T05:26:32;18.2;;;11.8;;
68375;SDS011;55318;52.068;5.188;2024-02-28T05:28:10;22.7;;;11.6;;
68375;SDS011;55318;52.068;5.188;2024-02-28T05:31:24;17.11;;;11.8;;
68375;SDS011;55318;52.068;5.188;2024-02-28T05:33:01;15.1;;;10.8;;
68375;SDS011;55318;52.068;5.188;2024-02-28T05:34:37;17.5;;;11.0;;
68375;SDS011;55318;52.068;5.188;2024-02-28T05:37:52;17.61;;;11.3;;
68375;SDS011;55318;52.068;5.188;2024-02-28T05:39:29;15.8;;;10.9;;
68375;SDS011;55318;52.068;5.188;2024-02-28T05:41:05;16.9;;;11.9;;
68375;SDS011;55318;52.068;5.188;2024-02-28T05:42:41;15.3;;;10.7;;
68375;SDS011;55318;52.068;5.188;2024-02-28T05:45:53;15.9;;;10.6;;
68375;SDS011;55318;52.068;5.188;2024-02-28T05:47:29;16.2;;;10.3;;
68375;SDS011;55318;52.068;5.188;2024-02-28T05:49:05;15.9;;;10.1;;
68375;SDS011;55318;52.068;5.188;2024-02-28T05:52:18;15.4;;;10.21;;
68375;SDS011;55318;52.068;5.188;2024-02-28T05:53:54;14.0;;;10.0;;
68375;SDS011;55318;52.068;5.188;2024-02-28T05:55:30;14.2;;;9.9;;
68375;SDS011;55318;52.068;5.188;2024-02-28T05:58:42;15.7;;;10.9;;
68375;SDS011;55318;52.068;5.188;2024-02-28T06:00:19;15.4;;;10.5;;
68375;SDS011;55318;52.068;5.188;2024-02-28T06:01:55;14.9;;;10.5;;
68375;SDS011;55318;52.068;5.188;2024-02-28T06:05:08;15.5;;;10.6;;
68375;SDS011;55318;52.068;5.188;2024-02-28T06:06:44;14.3;;;9.5;;
68375;SDS011;55318;52.068;5.188;2024-02-28T06:08:20;16.8;;;10.9;;
68375;SDS011;55318;52.068;5.188;2024-02-28T06:09:56;14.9;;;10.1;;
68375;SDS011;55318;52.068;5.188;2024-02-28T06:13:08;14.8;;;10.0;;
68375;SDS011;55318;52.068;5.188;2024-02-28T06:14:44;23.2;;;11.0;;
68375;SDS011;55318;52.068;5.188;2024-02-28T06:16:20;20.41;;;11.9;;
68375;SDS011;55318;52.068;5.188;2024-02-28T06:19:32;17.0;;;10.6;;
68375;SDS011;55318;52.068;5.188;2024-02-28T06:21:08;17.0;;;10.6;;
68375;SDS011;55318;52.068;5.188;2024-02-28T06:22:44;15.1;;;10.5;;
68375;SDS011;55318;52.068;5.188;2024-02-28T06:25:57;16.3;;;10.1;;
68375;SDS011;55318;52.068;5.188;2024-02-28T06:27:33;16.9;;;11.2;;
68375;SDS011;55318;52.068;5.188;2024-02-28T06:29:09;18.0;;;11.3;;
68375;SDS011;55318;52.068;5.188;2024-02-28T06:32:23;20.11;;;11.2;;
68375;SDS011;55318;52.068;5.188;2024-02-28T06:33:59;16.9;;;11.2;;
68375;SDS011;55318;52.068;5.188;2024-02-28T06:35:35;20.3;;;12.3;;
68375;SDS011;55318;52.068;5.188;2024-02-28T06:37:11;16.5;;;11.3;;
68375;SDS011;55318;52.068;5.188;2024-02-28T06:40:25;20.2;;;10.8;;
68375;SDS011;55318;52.068;5.188;2024-02-28T06:42:02;19.3;;;12.6;;
68375;SDS011;55318;52.068;5.188;2024-02-28T06:43:38;19.11;;;12.4;;
68375;SDS011;55318;52.068;5.188;2024-02-28T06:46:50;16.2;;;11.8;;
68375;SDS011;55318;52.068;5.188;2024-02-28T06:48:27;18.91;;;12.9;;
68375;SDS011;55318;52.068;5.188;2024-02-28T06:50:03;16.7;;;10.8;;
68375;SDS011;55318;52.068;5.188;2024-02-28T06:53:19;18.41;;;11.1;;
68375;SDS011;55318;52.068;5.188;2024-02-28T06:54:55;15.9;;;11.1;;
68375;SDS011;55318;52.068;5.188;2024-02-28T06:56:31;18.61;;;11.4;;
68375;SDS011;55318;52.068;5.188;2024-02-28T06:58:08;18.11;;;11.3;;
68375;SDS011;55318;52.068;5.188;2024-02-28T07:01:23;19.2;;;11.1;;
68375;SDS011;55318;52.068;5.188;2024-02-28T07:02:59;18.3;;;12.0;;
68375;SDS011;55318;52.068;5.188;2024-02-28T07:04:35;17.61;;;11.0;;
68375;SDS011;55318;52.068;5.188;2024-02-28T07:07:47;18.3;;;12.2;;
68375;SDS011;55318;52.068;5.188;2024-02-28T07:09:23;16.61;;;10.7;;
68375;SDS011;55318;52.068;5.188;2024-02-28T07:14:12;18.41;;;11.7;;
68375;SDS011;55318;52.068;5.188;2024-02-28T07:15:48;19.5;;;11.7;;
68375;SDS011;55318;52.068;5.188;2024-02-28T07:17:24;15.4;;;11.5;;
68375;SDS011;55318;52.068;5.188;2024-02-28T07:19:00;21.7;;;11.5;;
68375;SDS011;55318;52.068;5.188;2024-02-28T07:22:13;19.8;;;11.5;;
68375;SDS011;55318;52.068;5.188;2024-02-28T07:23:49;18.8;;;12.7;;
68375;SDS011;55318;52.068;5.188;2024-02-28T07:25:25;19.0;;;12.1;;
68375;SDS011;55318;52.068;5.188;2024-02-28T07:28:38;17.7;;;12.2;;
68375;SDS011;55318;52.068;5.188;2024-02-28T07:30:14;20.6;;;11.9;;
68375;SDS011;55318;52.068;5.188;2024-02-28T07:31:50;16.61;;;11.1;;
68375;SDS011;55318;52.068;5.188;2024-02-28T07:35:02;18.41;;;11.3;;
68375;SDS011;55318;52.068;5.188;2024-02-28T07:36:38;18.7;;;12.2;;
68375;SDS011;55318;52.068;5.188;2024-02-28T07:38:14;16.5;;;11.1;;
68375;SDS011;55318;52.068;5.188;2024-02-28T07:39:50;17.7;;;11.8;;
68375;SDS011;55318;52.068;5.188;2024-02-28T07:43:03;16.61;;;11.1;;
68375;SDS011;55318;52.068;5.188;2024-02-28T07:44:40;16.3;;;11.5;;
68375;SDS011;55318;52.068;5.188;2024-02-28T07:46:16;17.91;;;11.4;;
68375;SDS011;55318;52.068;5.188;2024-02-28T07:49:28;16.61;;;10.8;;
68375;SDS011;55318;52.068;5.188;2024-02-28T07:51:04;16.3;;;11.6;;
68375;SDS011;55318;52.068;5.188;2024-02-28T07:52:40;16.11;;;10.4;;
68375;SDS011;55318;52.068;5.188;2024-02-28T07:55:52;16.3;;;10.7;;
68375;SDS011;55318;52.068;5.188;2024-02-28T07:57:28;14.0;;;10.9;;
68375;SDS011;55318;52.068;5.188;2024-02-28T07:59:07;18.8;;;11.0;;
68375;SDS011;55318;52.068;5.188;2024-02-28T08:02:20;17.61;;;11.3;;
68375;SDS011;55318;52.068;5.188;2024-02-28T08:03:56;15.5;;;10.9;;
68375;SDS011;55318;52.068;5.188;2024-02-28T08:05:32;19.7;;;12.0;;
68375;SDS011;55318;52.068;5.188;2024-02-28T08:07:08;22.2;;;12.5;;
68375;SDS011;55318;52.068;5.188;2024-02-28T08:10:20;18.0;;;11.6;;
68375;SDS011;55318;52.068;5.188;2024-02-28T08:11:56;16.3;;;11.5;;
68375;SDS011;55318;52.068;5.188;2024-02-28T08:13:32;17.61;;;11.9;;
68375;SDS011;55318;52.068;5.188;2024-02-28T08:16:46;20.5;;;13.0;;
68375;SDS011;55318;52.068;5.188;2024-02-28T08:18:22;19.0;;;12.4;;
68375;SDS011;55318;52.068;5.188;2024-02-28T08:19:58;18.8;;;12.2;;
68375;SDS011;55318;52.068;5.188;2024-02-28T08:23:10;18.8;;;12.7;;
68375;SDS011;55318;52.068;5.188;2024-02-28T08:24:46;23.6;;;12.7;;
68375;SDS011;55318;52.068;5.188;2024-02-28T08:26:23;16.7;;;12.2;;
68375;SDS011;55318;52.068;5.188;2024-02-28T08:27:59;16.2;;;11.3;;
68375;SDS011;55318;52.068;5.188;2024-02-28T08:31:12;17.61;;;11.6;;
68375;SDS011;55318;52.068;5.188;2024-02-28T08:32:48;17.2;;;11.5;;
68375;SDS011;55318;52.068;5.188;2024-02-28T08:34:24;18.8;;;12.1;;
68375;SDS011;55318;52.068;5.188;2024-02-28T08:37:38;19.41;;;12.1;;
68375;SDS011;55318;52.068;5.188;2024-02-28T08:39:14;18.2;;;11.4;;
68375;SDS011;55318;52.068;5.188;2024-02-28T08:40:51;16.8;;;11.6;;
68375;SDS011;55318;52.068;5.188;2024-02-28T08:44:03;14.1;;;11.0;;
68375;SDS011;55318;52.068;5.188;2024-02-28T08:45:39;14.8;;;10.7;;
68375;SDS011;55318;52.068;5.188;2024-02-28T08:47:15;15.7;;;11.3;;
68375;SDS011;55318;52.068;5.188;2024-02-28T08:48:52;15.8;;;11.2;;
68375;SDS011;55318;52.068;5.188;2024-02-28T08:52:04;16.4;;;11.1;;
68375;SDS011;55318;52.068;5.188;2024-02-28T08:53:40;17.2;;;11.2;;
68375;SDS011;55318;52.068;5.188;2024-02-28T08:55:16;17.11;;;11.6;;
68375;SDS011;55318;52.068;5.188;2024-02-28T08:58:28;17.8;;;12.1;;
68375;SDS011;55318;52.068;5.188;2024-02-28T09:00:05;18.3;;;11.3;;
68375;SDS011;55318;52.068;5.188;2024-02-28T09:01:42;15.5;;;11.3;;
68375;SDS011;55318;52.068;5.188;2024-02-28T09:04:54;20.11;;;12.3;;
68375;SDS011;55318;52.068;5.188;2024-02-28T09:06:31;15.9;;;11.4;;
68375;SDS011;55318;52.068;5.188;2024-02-28T09:08:07;19.2;;;11.5;;
68375;SDS011;55318;52.068;5.188;2024-02-28T09:11:21;17.2;;;11.9;;
68375;SDS011;55318;52.068;5.188;2024-02-28T09:12:57;20.7;;;13.1;;
68375;SDS011;55318;52.068;5.188;2024-02-28T09:14:33;19.5;;;12.5;;
68375;SDS011;55318;52.068;5.188;2024-02-28T09:16:09;17.8;;;12.5;;
68375;SDS011;55318;52.068;5.188;2024-02-28T09:19:21;20.0;;;11.8;;
68375;SDS011;55318;52.068;5.188;2024-02-28T09:20:57;17.7;;;11.6;;
68375;SDS011;55318;52.068;5.188;2024-02-28T09:22:35;18.7;;;12.3;;
68375;SDS011;55318;52.068;5.188;2024-02-28T09:25:48;19.2;;;12.8;;
68375;SDS011;55318;52.068;5.188;2024-02-28T09:27:24;19.11;;;12.3;;
68375;SDS011;55318;52.068;5.188;2024-02-28T09:29:00;19.61;;;12.4;;
68375;SDS011;55318;52.068;5.188;2024-02-28T09:32:12;19.61;;;12.0;;
68375;SDS011;55318;52.068;5.188;2024-02-28T09:33:48;17.8;;;12.0;;
68375;SDS011;55318;52.068;5.188;2024-02-28T09:35:24;17.3;;;12.3;;
68375;SDS011;55318;52.068;5.188;2024-02-28T09:37:00;19.41;;;12.4;;
68375;SDS011;55318;52.068;5.188;2024-02-28T09:40:13;18.7;;;12.7;;
68375;SDS011;55318;52.068;5.188;2024-02-28T09:41:49;20.9;;;12.3;;
68375;SDS011;55318;52.068;5.188;2024-02-28T09:43:28;18.41;;;12.9;;
68375;SDS011;55318;52.068;5.188;2024-02-28T09:46:45;18.2;;;12.6;;
68375;SDS011;55318;52.068;5.188;2024-02-28T09:48:22;18.5;;;12.3;;
68375;SDS011;55318;52.068;5.188;2024-02-28T09:49:59;16.11;;;11.8;;
68375;SDS011;55318;52.068;5.188;2024-02-28T09:51:37;17.3;;;11.0;;
68375;SDS011;55318;52.068;5.188;2024-02-28T09:54:49;17.91;;;11.5;;
68375;SDS011;55318;52.068;5.188;2024-02-28T09:56:26;18.7;;;11.9;;
68375;SDS011;55318;52.068;5.188;2024-02-28T09:58:03;18.5;;;11.4;;
68375;SDS011;55318;52.068;5.188;2024-02-28T10:01:18;16.8;;;11.6;;
68375;SDS011;55318;52.068;5.188;2024-02-28T10:02:57;19.61;;;12.3;;
68375;SDS011;55318;52.068;5.188;2024-02-28T10:04:34;18.8;;;10.6;;
68375;SDS011;55318;52.068;5.188;2024-02-28T10:07:49;19.0;;;12.1;;
68375;SDS011;55318;52.068;5.188;2024-02-28T10:09:25;16.4;;;10.9;;
68375;SDS011;55318;52.068;5.188;2024-02-28T10:11:01;20.2;;;11.5;;
68375;SDS011;55318;52.068;5.188;2024-02-28T10:12:40;19.11;;;12.2;;
68375;SDS011;55318;52.068;5.188;2024-02-28T10:15:54;16.2;;;11.7;;
68375;SDS011;55318;52.068;5.188;2024-02-28T10:17:30;20.5;;;12.6;;
68375;SDS011;55318;52.068;5.188;2024-02-28T10:19:06;21.0;;;12.4;;
68375;SDS011;55318;52.068;5.188;2024-02-28T10:22:18;20.0;;;12.7;;
68375;SDS011;55318;52.068;5.188;2024-02-28T10:23:54;24.6;;;15.2;;
68375;SDS011;55318;52.068;5.188;2024-02-28T10:25:33;29.0;;;14.2;;
68375;SDS011;55318;52.068;5.188;2024-02-28T10:27:17;25.1;;;14.3;;
68375;SDS011;55318;52.068;5.188;2024-02-28T10:30:30;24.1;;;15.1;;
68375;SDS011;55318;52.068;5.188;2024-02-28T10:32:05;25.2;;;15.5;;
68375;SDS011;55318;52.068;5.188;2024-02-28T10:33:42;24.2;;;15.3;;
68375;SDS011;55318;52.068;5.188;2024-02-28T10:36:55;28.6;;;16.11;;
68375;SDS011;55318;52.068;5.188;2024-02-28T10:38:32;26.2;;;15.1;;
68375;SDS011;55318;52.068;5.188;2024-02-28T10:40:09;23.6;;;14.9;;
68375;SDS011;55318;52.068;5.188;2024-02-28T10:43:24;27.6;;;15.4;;
68375;SDS011;55318;52.068;5.188;2024-02-28T10:45:04;27.1;;;14.8;;
68375;SDS011;55318;52.068;5.188;2024-02-28T10:46:45;24.3;;;15.8;;
68375;SDS011;55318;52.068;5.188;2024-02-28T10:48:25;25.1;;;15.5;;
68375;SDS011;55318;52.068;5.188;2024-02-28T10:51:38;22.6;;;14.7;;
68375;SDS011;55318;52.068;5.188;2024-02-28T10:53:21;19.5;;;14.4;;
68375;SDS011;55318;52.068;5.188;2024-02-28T10:55:12;22.3;;;13.6;;
68375;SDS011;55318;52.068;5.188;2024-02-28T10:56:52;23.0;;;14.3;;
68375;SDS011;55318;52.068;5.188;2024-02-28T11:00:11;20.7;;;14.4;;
68375;SDS011;55318;52.068;5.188;2024-02-28T11:01:49;25.2;;;14.9;;
68375;SDS011;55318;52.068;5.188;2024-02-28T11:03:26;25.2;;;15.2;;
68375;SDS011;55318;52.068;5.188;2024-02-28T11:05:02;25.1;;;14.9;;
68375;SDS011;55318;52.068;5.188;2024-02-28T11:08:26;24.2;;;14.7;;
68375;SDS011;55318;52.068;5.188;2024-02-28T11:10:05;25.6;;;15.0;;
68375;SDS011;55318;52.068;5.188;2024-02-28T11:11:41;26.1;;;16.0;;
68375;SDS011;55318;52.068;5.188;2024-02-28T11:13:21;26.4;;;16.3;;
68375;SDS011;55318;52.068;5.188;2024-02-28T11:16:35;23.6;;;14.8;;
68375;SDS011;55318;52.068;5.188;2024-02-28T11:18:11;29.0;;;16.0;;
68375;SDS011;55318;52.068;5.188;2024-02-28T11:19:47;27.8;;;16.0;;
68375;SDS011;55318;52.068;5.188;2024-02-28T11:23:00;27.8;;;15.7;;
68375;SDS011;55318;52.068;5.188;2024-02-28T11:24:37;26.4;;;14.8;;
68375;SDS011;55318;52.068;5.188;2024-02-28T11:26:13;27.8;;;15.4;;
68375;SDS011;55318;52.068;5.188;2024-02-28T11:29:26;22.3;;;14.5;;
68375;SDS011;55318;52.068;5.188;2024-02-28T11:31:03;25.0;;;14.1;;
68375;SDS011;55318;52.068;5.188;2024-02-28T11:32:40;23.9;;;13.8;;
68375;SDS011;55318;52.068;5.188;2024-02-28T11:34:16;22.1;;;14.0;;
68375;SDS011;55318;52.068;5.188;2024-02-28T11:37:31;27.7;;;14.7;;
68375;SDS011;55318;52.068;5.188;2024-02-28T11:39:07;22.1;;;13.0;;
68375;SDS011;55318;52.068;5.188;2024-02-28T11:40:48;23.6;;;14.2;;
68375;SDS011;55318;52.068;5.188;2024-02-28T11:44:00;27.6;;;13.9;;
68375;SDS011;55318;52.068;5.188;2024-02-28T11:45:39;22.9;;;13.9;;
68375;SDS011;55318;52.068;5.188;2024-02-28T11:47:15;22.7;;;13.9;;
68375;SDS011;55318;52.068;5.188;2024-02-28T11:48:52;20.8;;;11.8;;
68375;SDS011;55318;52.068;5.188;2024-02-28T11:52:05;20.5;;;12.0;;
68375;SDS011;55318;52.068;5.188;2024-02-28T11:53:42;22.0;;;13.0;;
68375;SDS011;55318;52.068;5.188;2024-02-28T11:55:18;23.4;;;13.7;;
68375;SDS011;55318;52.068;5.188;2024-02-28T11:58:31;20.5;;;12.3;;
68375;SDS011;55318;52.068;5.188;2024-02-28T12:00:08;20.0;;;12.8;;
68375;SDS011;55318;52.068;5.188;2024-02-28T12:01:45;24.2;;;13.3;;
68375;SDS011;55318;52.068;5.188;2024-02-28T12:05:01;22.8;;;12.3;;
68375;SDS011;55318;52.068;5.188;2024-02-28T12:06:38;23.2;;;12.5;;
68375;SDS011;55318;52.068;5.188;2024-02-28T12:08:16;18.7;;;12.1;;
68375;SDS011;55318;52.068;5.188;2024-02-28T12:09:53;20.6;;;12.1;;
68375;SDS011;55318;52.068;5.188;2024-02-28T12:13:05;19.11;;;12.0;;
68375;SDS011;55318;52.068;5.188;2024-02-28T12:14:41;22.4;;;12.5;;
68375;SDS011;55318;52.068;5.188;2024-02-28T12:16:23;22.3;;;13.6;;
68375;SDS011;55318;52.068;5.188;2024-02-28T12:19:43;20.5;;;12.4;;
68375;SDS011;55318;52.068;5.188;2024-02-28T12:21:19;20.7;;;12.7;;
68375;SDS011;55318;52.068;5.188;2024-02-28T12:22:55;19.8;;;11.8;;
68375;SDS011;55318;52.068;5.188;2024-02-28T12:24:31;21.7;;;12.7;;
68375;SDS011;55318;52.068;5.188;2024-02-28T12:27:43;22.8;;;13.0;;
68375;SDS011;55318;52.068;5.188;2024-02-28T12:29:19;19.41;;;11.5;;
68375;SDS011;55318;52.068;5.188;2024-02-28T12:30:55;21.0;;;12.7;;
68375;SDS011;55318;52.068;5.188;2024-02-28T12:34:07;19.11;;;11.5;;